createdAt,value
2022-11-09T00:01:30.243Z,100150.41
2022-11-09T00:05:31.780Z,100149.44
2022-11-09T00:09:33.336Z,100138.25
2022-11-09T00:13:39.763Z,100144.22
2022-11-09T00:17:41.284Z,100139.94
2022-11-09T00:21:42.930Z,100141.66
2022-11-09T00:25:44.567Z,100148.53
2022-11-09T00:29:46.043Z,100134.81
2022-11-09T00:33:53.033Z,100153.69
2022-11-09T00:37:54.661Z,100161.41
2022-11-09T00:41:56.284Z,100162.25
2022-11-09T00:45:57.970Z,100169.97
2022-11-09T00:49:59.543Z,100172.50
2022-11-09T00:54:01.149Z,100177.63
2022-11-09T00:58:03.707Z,100175.72
2022-11-09T01:02:05.941Z,100184.34
2022-11-09T01:06:13.785Z,100165.53
2022-11-09T01:10:17.377Z,100183.59
2022-11-09T01:14:21.245Z,100176.69
2022-11-09T01:18:23.819Z,100186.84
2022-11-09T01:22:28.835Z,100187.59
2022-11-09T01:26:30.428Z,100184.00
2022-11-09T01:30:40.436Z,100146.91
2022-11-09T01:34:41.983Z,100176.81
2022-11-09T01:38:44.263Z,100178.31
2022-11-09T01:42:45.859Z,100184.25
2022-11-09T01:47:02.640Z,100179.06
2022-11-09T01:51:14.345Z,100163.56
2022-11-09T01:55:18.565Z,100198.63
2022-11-09T01:59:23.976Z,100173.66
2022-11-09T02:03:40.328Z,100187.25
2022-11-09T02:07:42.728Z,100171.63
2022-11-09T02:11:44.320Z,100165.56
2022-11-09T02:15:46.274Z,100175.81
2022-11-09T02:19:48.303Z,100171.41
2022-11-09T02:23:51.082Z,100181.56
2022-11-09T02:27:53.704Z,100171.25
2022-11-09T02:32:03.351Z,100161.72
2022-11-09T02:36:05.661Z,100165.03
2022-11-09T02:40:12.579Z,100146.97
2022-11-09T02:44:16.439Z,100148.69
2022-11-09T02:48:18.052Z,100150.38
2022-11-09T02:52:19.717Z,100145.19
2022-11-09T02:56:21.491Z,100136.63
2022-11-09T03:00:23.110Z,100122.00
2022-11-09T03:04:25.352Z,100116.88
2022-11-09T03:08:27.466Z,100115.94
2022-11-09T03:12:29.253Z,100118.47
2022-11-09T03:16:33.931Z,100113.50
2022-11-09T03:20:35.585Z,100104.16
2022-11-09T03:24:37.357Z,100123.00
2022-11-09T03:28:39.836Z,100119.50
2022-11-09T03:32:41.558Z,100129.84
2022-11-09T03:36:43.207Z,100114.50
2022-11-09T03:40:44.844Z,100133.38
2022-11-09T03:44:46.694Z,100143.72
2022-11-09T03:48:48.195Z,100137.00
2022-11-09T03:52:49.794Z,100143.91
2022-11-09T03:56:51.291Z,100149.13
2022-11-09T04:00:52.814Z,100149.13
2022-11-09T04:04:54.350Z,100157.00
2022-11-09T04:08:55.890Z,100165.59
2022-11-09T04:12:57.489Z,100166.44
2022-11-09T04:16:59.014Z,100175.00
2022-11-09T04:21:00.691Z,100165.53
2022-11-09T04:25:02.182Z,100165.56
2022-11-09T04:29:04.098Z,100154.38
2022-11-09T04:33:05.943Z,100138.91
2022-11-09T04:37:09.711Z,100149.94
2022-11-09T04:41:11.214Z,100155.97
2022-11-09T04:45:12.871Z,100160.31
2022-11-09T04:49:14.371Z,100150.88
2022-11-09T04:53:16.049Z,100155.13
2022-11-09T04:57:17.556Z,100147.47
2022-11-09T05:01:19.120Z,100154.38
2022-11-09T05:05:20.686Z,100163.97
2022-11-09T05:09:22.211Z,100163.19
2022-11-09T05:13:23.726Z,100187.38
2022-11-09T05:17:25.269Z,100182.34
2022-11-09T05:21:27.519Z,100190.13
2022-11-09T05:25:29.115Z,100203.84
2022-11-09T05:29:30.644Z,100191.88
2022-11-09T05:33:32.260Z,100198.75
2022-11-09T05:37:33.855Z,100191.84
2022-11-09T05:41:35.430Z,100198.66
2022-11-09T05:45:42.498Z,100192.63
2022-11-09T05:49:44.813Z,100187.47
2022-11-09T05:53:47.133Z,100200.22
2022-11-09T05:57:48.813Z,100199.28
2022-11-09T06:01:50.470Z,100197.53
2022-11-09T06:05:52.123Z,100173.47
2022-11-09T06:09:53.771Z,100165.50
2022-11-09T06:13:55.310Z,100191.03
2022-11-09T06:17:58.057Z,100191.16
2022-11-09T06:21:59.603Z,100184.28
2022-11-09T06:26:06.415Z,100199.78
2022-11-09T06:30:08.604Z,100190.41
2022-11-09T06:34:10.239Z,100198.13
2022-11-09T06:38:11.734Z,100191.22
2022-11-09T06:42:13.303Z,100204.88
2022-11-09T06:46:17.310Z,100202.41
2022-11-09T06:50:19.007Z,100181.84
2022-11-09T06:54:20.597Z,100196.22
2022-11-09T06:58:22.230Z,100186.69
2022-11-09T07:02:23.740Z,100163.56
2022-11-09T07:06:25.357Z,100165.41
2022-11-09T07:10:26.863Z,100172.19
2022-11-09T07:14:28.417Z,100180.81
2022-11-09T07:18:30.068Z,100204.88
2022-11-09T07:22:31.612Z,100205.84
2022-11-09T07:26:33.353Z,100206.81
2022-11-09T07:30:36.592Z,100219.78
2022-11-09T07:34:38.269Z,100223.28
2022-11-09T07:38:39.858Z,100208.72
2022-11-09T07:42:41.435Z,100214.06
2022-11-09T07:46:42.986Z,100217.47
2022-11-09T07:50:45.040Z,100235.53
2022-11-09T07:54:51.782Z,100241.72
2022-11-09T07:58:53.754Z,100254.66
2022-11-09T08:02:55.485Z,100252.25
2022-11-09T08:06:57.077Z,100270.34
2022-11-09T08:10:58.813Z,100291.84
2022-11-09T08:15:00.379Z,100283.41
2022-11-09T08:19:02.046Z,100281.75
2022-11-09T08:23:05.057Z,100278.44
2022-11-09T08:27:06.735Z,100277.59
2022-11-09T08:31:09.210Z,100290.56
2022-11-09T08:35:13.493Z,100291.59
2022-11-09T08:39:15.076Z,100284.84
2022-11-09T08:43:16.803Z,100284.06
2022-11-09T08:47:18.315Z,100292.63
2022-11-09T08:51:19.843Z,100289.88
2022-11-09T08:55:21.887Z,100286.47
2022-11-09T08:59:23.393Z,100300.34
2022-11-09T09:03:25.028Z,100304.81
2022-11-09T09:07:26.647Z,100303.16
2022-11-09T09:11:28.661Z,100301.50
2022-11-09T09:15:30.598Z,100311.09
2022-11-09T09:19:32.283Z,100306.19
2022-11-09T09:23:34.108Z,100304.84
2022-11-09T09:27:36.020Z,100301.84
2022-11-09T09:31:37.584Z,100303.19
2022-11-09T09:35:39.117Z,100300.91
2022-11-09T09:39:40.659Z,100307.13
2022-11-09T09:43:47.874Z,100310.72
2022-11-09T09:48:39.905Z,100306.53
2022-11-09T09:53:22.125Z,100319.31
2022-11-09T09:57:21.816Z,100316.31
2022-11-09T10:01:27.744Z,100319.44
2022-11-09T10:05:45.394Z,100327.03
2022-11-09T10:10:16.450Z,100322.06
2022-11-09T10:14:33.158Z,100321.16
2022-11-09T10:18:44.322Z,100311.56
2022-11-09T10:22:58.064Z,100314.94
2022-11-09T10:27:01.199Z,100311.66
2022-11-09T10:31:03.884Z,100305.13
2022-11-09T10:35:17.199Z,100303.41
2022-11-09T10:39:21.363Z,100306.00
2022-11-09T10:43:41.458Z,100306.75
2022-11-09T10:48:02.859Z,100304.16
2022-11-09T10:52:44.155Z,100293.97
2022-11-09T10:57:14.612Z,100295.84
2022-11-09T11:01:38.250Z,100286.56
2022-11-09T11:06:01.188Z,100290.97
2022-11-09T11:10:22.443Z,100295.25
2022-11-09T11:14:44.813Z,100297.13
2022-11-09T11:19:05.375Z,100290.28
2022-11-09T11:23:26.497Z,100280.19
2022-11-09T11:28:01.038Z,100281.25
2022-11-09T11:32:23.306Z,100281.50
2022-11-09T11:37:19.702Z,100272.16
2022-11-09T11:42:08.277Z,100276.66
2022-11-09T11:46:41.477Z,100281.16
2022-11-09T11:51:45.658Z,100284.78
2022-11-09T11:56:08.408Z,100276.19
2022-11-09T12:00:31.762Z,100272.81
2022-11-09T12:05:16.861Z,100267.84
2022-11-09T12:10:01.198Z,100269.63
2022-11-09T12:14:49.134Z,100261.97
2022-11-09T12:19:35.372Z,100268.06
2022-11-09T12:24:17.487Z,100267.28
2022-11-09T12:28:59.062Z,100268.16
2022-11-09T12:33:32.254Z,100259.56
2022-11-09T12:38:00.200Z,100254.41
2022-11-09T12:42:30.618Z,100255.25
2022-11-09T12:46:57.103Z,100251.84
2022-11-09T12:51:18.077Z,100245.75
2022-11-09T12:55:55.834Z,100255.13
2022-11-09T13:00:34.374Z,100262.72
2022-11-09T13:05:00.045Z,100260.09
2022-11-09T13:09:24.291Z,100258.31
2022-11-09T13:13:44.784Z,100265.09
2022-11-09T13:18:06.166Z,100255.53
2022-11-09T13:22:26.242Z,100252.09
2022-11-09T13:26:46.382Z,100259.81
2022-11-09T13:31:09.783Z,100259.81
2022-11-09T13:35:42.434Z,100264.94
2022-11-09T13:40:31.295Z,100252.91
2022-11-09T13:44:51.371Z,100261.56
2022-11-09T13:49:39.181Z,100255.50
2022-11-09T13:54:00.614Z,100256.41
2022-11-09T13:58:25.003Z,100259.88
2022-11-09T14:03:00.517Z,100259.81
2022-11-09T14:07:23.228Z,100274.44
2022-11-09T14:12:05.676Z,100277.78
2022-11-09T14:16:53.284Z,100277.75
2022-11-09T14:21:36.917Z,100286.31
2022-11-09T14:25:57.597Z,100287.09
2022-11-09T14:30:22.180Z,100287.03
2022-11-09T14:34:42.295Z,100289.56
2022-11-09T14:39:16.895Z,100294.66
2022-11-09T14:43:43.936Z,100305.75
2022-11-09T14:48:04.688Z,100298.78
2022-11-09T14:52:28.645Z,100295.25
2022-11-09T14:56:49.288Z,100300.34
2022-11-09T15:01:22.343Z,100299.41
2022-11-09T15:05:42.423Z,100296.72
2022-11-09T15:10:06.848Z,100294.91
2022-11-09T15:14:30.410Z,100284.50
2022-11-09T15:18:50.734Z,100302.47
2022-11-09T15:23:24.170Z,100323.84
2022-11-09T15:28:14.263Z,100328.88
2022-11-09T15:32:37.884Z,100331.41
2022-11-09T15:36:58.149Z,100329.69
2022-11-09T15:41:20.634Z,100332.28
2022-11-09T15:45:40.982Z,100328.75
2022-11-09T15:50:10.990Z,100327.88
2022-11-09T15:54:33.354Z,100340.63
2022-11-09T15:58:53.662Z,100339.63
2022-11-09T16:03:16.831Z,100334.44
2022-11-09T16:07:36.920Z,100345.47
2022-11-09T16:11:57.573Z,100359.06
2022-11-09T16:16:18.055Z,100369.38
2022-11-09T16:20:38.195Z,100372.75
2022-11-09T16:24:58.444Z,100383.03
2022-11-09T16:29:18.758Z,100393.38
2022-11-09T16:33:39.906Z,100399.28
2022-11-09T16:38:03.311Z,100398.44
2022-11-09T16:42:23.709Z,100406.13
2022-11-09T16:46:45.935Z,100418.19
2022-11-09T16:51:05.864Z,100424.25
2022-11-09T16:55:26.363Z,100431.97
2022-11-09T16:59:46.741Z,100441.44
2022-11-09T17:04:07.263Z,100453.47
2022-11-09T17:08:28.218Z,100459.47
2022-11-09T17:12:48.393Z,100452.63
2022-11-09T17:17:08.290Z,100466.34
2022-11-09T17:21:29.806Z,100472.38
2022-11-09T17:26:00.896Z,100466.34
2022-11-09T17:30:21.605Z,100472.31
2022-11-09T17:34:41.689Z,100479.97
2022-11-09T17:39:02.057Z,100479.91
2022-11-09T17:43:22.354Z,100478.16
2022-11-09T17:47:42.744Z,100478.16
2022-11-09T17:52:02.945Z,100486.63
2022-11-09T17:56:23.681Z,100494.31
2022-11-09T18:00:44.108Z,100505.41
2022-11-09T18:05:04.508Z,100511.38
2022-11-09T18:09:40.766Z,100531.09
2022-11-09T18:14:01.720Z,100531.06
2022-11-09T18:18:23.627Z,100534.53
2022-11-09T18:22:44.302Z,100536.25
2022-11-09T18:27:04.821Z,100543.97
2022-11-09T18:31:25.231Z,100551.72
2022-11-09T18:36:01.711Z,100550.84
2022-11-09T18:40:22.202Z,100564.59
2022-11-09T18:44:42.499Z,100561.97
2022-11-09T18:49:02.814Z,100566.19
2022-11-09T18:53:25.135Z,100569.56
2022-11-09T18:57:45.228Z,100567.91
2022-11-09T19:02:07.230Z,100572.81
2022-11-09T19:06:28.226Z,100586.34
2022-11-09T19:10:48.597Z,100593.97
2022-11-09T19:15:09.216Z,100593.03
2022-11-09T19:19:29.211Z,100598.84
2022-11-09T19:23:49.457Z,100604.00
2022-11-09T19:28:09.520Z,100608.25
2022-11-09T19:32:29.716Z,100615.09
2022-11-09T19:36:49.694Z,100620.97
2022-11-09T19:41:10.117Z,100626.91
2022-11-09T19:45:30.426Z,100625.19
2022-11-09T19:49:50.639Z,100629.50
2022-11-09T19:54:12.066Z,100640.47
2022-11-09T19:58:32.168Z,100642.88
2022-11-09T20:02:52.575Z,100647.06
2022-11-09T20:07:12.934Z,100653.84
2022-11-09T20:11:51.530Z,100659.72
2022-11-09T20:16:11.906Z,100656.84
2022-11-09T20:20:32.107Z,100666.19
2022-11-09T20:24:52.340Z,100679.84
2022-11-09T20:29:12.608Z,100689.03
2022-11-09T20:33:32.836Z,100700.75
2022-11-09T20:37:53.366Z,100702.22
2022-11-09T20:42:13.482Z,100718.31
2022-11-09T20:46:36.543Z,100724.91
2022-11-09T20:51:03.596Z,100721.31
2022-11-09T20:55:24.550Z,100716.78
2022-11-09T20:59:44.702Z,100736.13
2022-11-09T21:04:05.925Z,100741.25
2022-11-09T21:08:27.367Z,100732.63
2022-11-09T21:12:47.366Z,100735.00
2022-11-09T21:17:07.622Z,100750.38
2022-11-09T21:21:30.883Z,100762.19
2022-11-09T21:26:18.337Z,100763.69
2022-11-09T21:30:38.869Z,100773.00
2022-11-09T21:34:59.649Z,100778.09
2022-11-09T21:39:19.859Z,100787.34
2022-11-09T21:43:40.141Z,100797.78
2022-11-09T21:48:00.457Z,100801.97
2022-11-09T21:52:20.952Z,100803.00
2022-11-09T21:56:40.874Z,100806.63
2022-11-09T22:01:08.414Z,100815.34
2022-11-09T22:05:29.176Z,100822.22
2022-11-09T22:10:09.408Z,100833.28
2022-11-09T22:14:49.287Z,100836.94
2022-11-09T22:19:28.058Z,100840.13
2022-11-09T22:23:48.301Z,100846.41
2022-11-09T22:28:08.581Z,100864.13
2022-11-09T22:32:28.783Z,100883.63
2022-11-09T22:36:48.870Z,100879.00
2022-11-09T22:41:14.006Z,100887.91
2022-11-09T22:45:34.405Z,100904.00
2022-11-09T22:49:54.610Z,100901.44
2022-11-09T22:54:14.814Z,100918.53
2022-11-09T22:58:35.052Z,100927.06
2022-11-09T23:02:57.299Z,100933.00
2022-11-09T23:07:17.489Z,100928.59
2022-11-09T23:11:37.979Z,100934.41
2022-11-09T23:16:02.554Z,100947.09
2022-11-09T23:20:22.548Z,100942.59
2022-11-09T23:25:01.659Z,100947.53
2022-11-09T23:29:22.085Z,100948.72
2022-11-09T23:33:42.591Z,100951.03
2022-11-09T23:38:04.569Z,100956.09
2022-11-09T23:42:24.592Z,100952.59
2022-11-09T23:46:44.731Z,100958.47
2022-11-09T23:51:05.988Z,100963.44
2022-11-09T23:55:27.519Z,100964.19
2022-11-09T23:59:48.015Z,100964.88
